| time (UTC) | temp F | wind direction | speed MPH | gust MPH | rain 1hr in | rain 24hr in | rain mn in | humidity % | barometer mb |
| 20260906042034 | 65 | 0.0 | 0.0 | 0.00 | 0.00 | 0.00 | 58 | 976.0 | |
| 20260906035009 | 62 | 0.0 | 0.0 | 0.00 | 0.00 | 0.00 | 65 | 976.0 | |
| 20260906024921 | 64 | 0 | 0.0 | 0.0 | 0.00 | 0.00 | 0.00 | 64 | 976.0 |
| 20260906021857 | 65 | 0 | 0.0 | 0.0 | 0.00 | 0.00 | 0.00 | 60 | 976.0 |
| 20260906014833 | 66 | 0 | 0.0 | 0.0 | 0.00 | 0.00 | 0.00 | 58 | 976.0 |
| 20260906011809 | 67 | 0 | 0.0 | 0.0 | 0.00 | 0.00 | 0.00 | 58 | 976.0 |
| 20260906004745 | 67 | 0 | 0.0 | 0.0 | 0.00 | 0.00 | 0.00 | 58 | 976.0 |
| 20260906001721 | 67 | 0 | 0.0 | 0.0 | 0.00 | 0.00 | 0.00 | 57 | 976.0 |
| 20260905234657 | 68 | 0 | 0.0 | 0.0 | 0.00 | 0.00 | 0.00 | 56 | 976.0 |
| 20260905231632 | 68 | 0 | 0.0 | 0.0 | 0.00 | 0.00 | 0.00 | 56 | 976.0 |
| 20260905224608 | 68 | 0 | 0.0 | 0.0 | 0.00 | 0.00 | 0.00 | 56 | 976.0 |
| 20260905221544 | 69 | 0 | 0.0 | 0.0 | 0.00 | 0.00 | 0.00 | 51 | 976.0 |
| 20260905214520 | 70 | 0 | 0.0 | 0.0 | 0.00 | 0.00 | 0.00 | 51 | 976.0 |
| 20260905211456 | 70 | 0 | 0.0 | 0.0 | 0.00 | 0.00 | 0.00 | 53 | 976.0 |
| 20260905204432 | 70 | 0 | 0.0 | 0.0 | 0.00 | 0.00 | 0.00 | 54 | 975.0 |
| 20260905201407 | 70 | 0 | 0.0 | 0.0 | 0.00 | 0.00 | 0.00 | 58 | 975.0 |
| 20260905184255 | 70 | 0 | 0.0 | 0.0 | 0.00 | 0.00 | 0.00 | 61 | 975.0 |
| 20260905181231 | 72 | 0 | 0.0 | 0.0 | 0.00 | 0.00 | 0.00 | 61 | 974.0 |
| 20260905174207 | 73 | 0 | 0.0 | 0.0 | 0.00 | 0.00 | 0.00 | 59 | 974.0 |
| 20260905171142 | 72 | 0 | 0.0 | 0.0 | 0.00 | 0.00 | 0.00 | 57 | 974.0 |
| 20260905164118 | 72 | 0.0 | 0.0 | 0.00 | 0.00 | 0.00 | 57 | 973.0 | |
| 20260905155926 | 73 | 0.0 | 0.0 | 0.00 | 0.00 | 0.00 | 47 | 972.0 | |
| 20260905152902 | 75 | 0.0 | 0.0 | 0.00 | 0.00 | 0.00 | 45 | 972.0 | |
| 20260905145838 | 80 | 0.0 | 0.0 | 0.00 | 0.00 | 0.00 | 40 | 972.0 | |
| 20260905142814 | 91 | 0.0 | 0.0 | 0.00 | 0.00 | 0.00 | 30 | 971.0 | |
| 20260905135750 | 92 | 0.0 | 0.0 | 0.00 | 0.00 | 0.00 | 30 | 971.0 | |
| 20260905132726 | 95 | 0.0 | 0.0 | 0.00 | 0.00 | 0.00 | 27 | 971.0 | |
| 20260905125701 | 97 | 0.0 | 0.0 | 0.00 | 0.00 | 0.00 | 21 | 970.0 | |
| 20260905122637 | 97 | 0.0 | 0.0 | 0.00 | 0.00 | 0.00 | 21 | 970.0 | |
| 20260905115613 | 96 | 0.0 | 0.0 | 0.00 | 0.00 | 0.00 | 21 | 970.0 | |
| 20260905112549 | 101 | 0.0 | 0.0 | 0.00 | 0.00 | 0.00 | 20 | 970.0 | |
| 20260905095435 | 95 | 0.0 | 0.0 | 0.00 | 0.00 | 0.00 | 24 | 971.0 | |
| 20260905092411 | 92 | 0.0 | 0.0 | 0.00 | 0.00 | 0.00 | 26 | 971.0 | |
| 20260905082322 | 87 | 0.0 | 0.0 | 0.00 | 0.00 | 0.00 | 28 | 972.0 | |
| 20260905075257 | 88 | 0.0 | 0.0 | 0.00 | 0.00 | 0.00 | 30 | 972.0 | |
| 20260905072206 | 87 | 0.0 | 0.0 | 0.00 | 0.00 | 0.00 | 29 | 972.0 | |
| 20260905065142 | 87 | 0.0 | 0.0 | 0.00 | 0.00 | 0.00 | 29 | 972.0 | |
| 20260905062117 | 84 | 0.0 | 0.0 | 0.00 | 0.00 | 0.00 | 32 | 972.0 | |
| 20260905055053 | 79 | 0.0 | 0.0 | 0.00 | 0.00 | 0.00 | 36 | 972.0 | |
| 20260905052029 | 79 | 0.0 | 0.0 | 0.00 | 0.00 | 0.00 | 35 | 973.0 | |
| 20260905045005 | 77 | 0.0 | 0.0 | 0.00 | 0.00 | 0.00 | 38 | 973.0 |